createdAt,value
2022-11-11T00:01:29.734Z,86.90
2022-11-11T00:04:16.043Z,86.89
2022-11-11T00:07:02.945Z,86.84
2022-11-11T00:09:48.731Z,86.76
2022-11-11T00:12:34.834Z,86.70
2022-11-11T00:15:22.619Z,86.62
2022-11-11T00:18:33.331Z,86.53
2022-11-11T00:21:36.752Z,86.95
2022-11-11T00:24:45.116Z,86.96
2022-11-11T00:27:30.747Z,87.15
2022-11-11T00:30:16.888Z,87.11
2022-11-11T00:33:02.462Z,87.06
2022-11-11T00:35:57.406Z,87.12
2022-11-11T00:38:46.693Z,86.98
2022-11-11T00:41:32.474Z,87.04
2022-11-11T00:44:18.224Z,86.99
2022-11-11T00:47:21.594Z,86.92
2022-11-11T00:50:30.769Z,86.90
2022-11-11T00:53:23.412Z,86.98
2022-11-11T00:56:11.992Z,87.05
2022-11-11T00:58:57.745Z,87.16
2022-11-11T01:01:43.526Z,87.17
2022-11-11T01:04:29.667Z,87.27
2022-11-11T01:07:15.344Z,87.26
2022-11-11T01:10:01.134Z,87.39
2022-11-11T01:12:47.304Z,87.34
2022-11-11T01:15:35.793Z,87.18
2022-11-11T01:18:24.438Z,87.36
2022-11-11T01:21:13.028Z,87.29
2022-11-11T01:23:58.914Z,87.24
2022-11-11T01:26:45.293Z,87.24
2022-11-11T01:29:31.782Z,87.12
2022-11-11T01:32:17.468Z,87.27
2022-11-11T01:35:03.337Z,87.19
2022-11-11T01:37:49.493Z,87.20
2022-11-11T01:40:43.957Z,87.05
2022-11-11T01:43:30.364Z,86.97
2022-11-11T01:46:26.644Z,86.97
2022-11-11T01:49:29.741Z,86.95
2022-11-11T01:52:20.416Z,86.98
2022-11-11T01:55:09.569Z,86.92
2022-11-11T01:57:59.272Z,86.96
2022-11-11T02:00:46.130Z,86.96
2022-11-11T02:03:36.741Z,86.80
2022-11-11T02:06:23.023Z,86.64
2022-11-11T02:09:09.879Z,86.62
2022-11-11T02:12:15.492Z,86.64
2022-11-11T02:15:02.819Z,86.71
2022-11-11T02:17:50.753Z,86.71
2022-11-11T02:20:40.027Z,86.71
2022-11-11T02:23:30.025Z,86.54
2022-11-11T02:26:20.220Z,86.43
2022-11-11T02:29:10.413Z,86.40
2022-11-11T02:31:56.740Z,86.43
2022-11-11T02:34:42.214Z,86.46
2022-11-11T02:37:29.234Z,86.41
2022-11-11T02:40:18.111Z,86.53
2022-11-11T02:43:03.971Z,86.64
2022-11-11T02:45:50.108Z,86.67
2022-11-11T02:48:35.887Z,86.72
2022-11-11T02:51:21.857Z,86.72
2022-11-11T02:54:07.922Z,86.68
2022-11-11T02:57:09.504Z,86.82
2022-11-11T02:59:55.022Z,86.74
2022-11-11T03:02:40.940Z,86.78
2022-11-11T03:05:26.742Z,86.77
2022-11-11T03:08:12.723Z,86.80
2022-11-11T03:10:58.670Z,86.94
2022-11-11T03:13:44.580Z,86.88
2022-11-11T03:16:44.421Z,86.94
2022-11-11T03:19:30.706Z,86.99
2022-11-11T03:22:54.032Z,86.84
2022-11-11T03:25:41.546Z,86.85
2022-11-11T03:28:27.641Z,86.84
2022-11-11T03:31:13.189Z,86.95
2022-11-11T03:34:18.320Z,86.85
2022-11-11T03:37:22.092Z,87.04
2022-11-11T03:40:10.086Z,87.03
2022-11-11T03:42:59.685Z,87.08
2022-11-11T03:45:50.547Z,87.10
2022-11-11T03:48:36.900Z,87.26
2022-11-11T03:51:22.790Z,87.16
2022-11-11T03:54:08.650Z,87.13
2022-11-11T03:57:15.611Z,87.09
2022-11-11T04:00:01.338Z,87.01
2022-11-11T04:03:04.901Z,87.18
2022-11-11T04:06:07.995Z,87.17
2022-11-11T04:09:11.741Z,87.19
2022-11-11T04:11:57.224Z,87.28
2022-11-11T04:15:00.503Z,87.26
2022-11-11T04:17:46.575Z,87.33
2022-11-11T04:20:50.055Z,87.37
2022-11-11T04:23:35.615Z,87.36
2022-11-11T04:26:21.575Z,87.39
2022-11-11T04:29:24.846Z,87.48
2022-11-11T04:32:29.685Z,87.41
2022-11-11T04:35:16.738Z,87.37
2022-11-11T04:38:16.667Z,87.36
2022-11-11T04:41:05.021Z,87.27
2022-11-11T04:44:08.492Z,87.17
2022-11-11T04:46:53.993Z,87.21
2022-11-11T04:49:39.419Z,87.09
2022-11-11T04:52:28.733Z,87.13
2022-11-11T04:55:31.945Z,87.14
2022-11-11T04:58:18.849Z,87.10
2022-11-11T05:01:05.045Z,87.13
2022-11-11T05:03:50.828Z,87.05
2022-11-11T05:06:58.108Z,87.06
2022-11-11T05:09:45.138Z,87.09
2022-11-11T05:12:30.878Z,87.07
2022-11-11T05:15:34.588Z,87.10
2022-11-11T05:18:37.791Z,87.12
2022-11-11T05:21:28.292Z,87.15
2022-11-11T05:24:31.993Z,87.33
2022-11-11T05:27:17.876Z,87.11
2022-11-11T05:30:03.750Z,87.21
2022-11-11T05:32:49.997Z,87.34
2022-11-11T05:35:36.650Z,87.38
2022-11-11T05:38:22.386Z,87.34
2022-11-11T05:41:08.998Z,87.43
2022-11-11T05:43:54.676Z,87.40
2022-11-11T05:46:40.773Z,87.22
2022-11-11T05:49:26.711Z,87.26
2022-11-11T05:52:13.912Z,87.35
2022-11-11T05:54:59.823Z,87.26
2022-11-11T05:57:45.274Z,87.28
2022-11-11T06:00:30.908Z,87.21
2022-11-11T06:03:16.916Z,87.16
2022-11-11T06:06:02.825Z,87.20
2022-11-11T06:08:49.003Z,87.09
2022-11-11T06:11:35.387Z,87.17
2022-11-11T06:14:21.009Z,87.24
2022-11-11T06:17:06.990Z,87.12
2022-11-11T06:19:52.746Z,87.06
2022-11-11T06:23:01.482Z,87.12
2022-11-11T06:26:05.245Z,87.12
2022-11-11T06:28:53.014Z,87.04
2022-11-11T06:31:39.006Z,87.10
2022-11-11T06:34:25.042Z,87.14
2022-11-11T06:37:10.860Z,87.06
2022-11-11T06:39:56.799Z,87.00
2022-11-11T06:42:42.416Z,87.09
2022-11-11T06:45:30.299Z,87.09
2022-11-11T06:48:14.449Z,86.89
2022-11-11T06:51:06.069Z,86.68
2022-11-11T06:53:52.188Z,86.82
2022-11-11T06:56:37.626Z,86.72
2022-11-11T06:59:23.627Z,86.58
2022-11-11T07:02:14.072Z,86.48
2022-11-11T07:05:00.241Z,86.36
2022-11-11T07:07:46.222Z,86.21
2022-11-11T07:10:32.723Z,86.19
2022-11-11T07:13:19.440Z,86.37
2022-11-11T07:16:05.609Z,86.24
2022-11-11T07:18:51.237Z,86.27
2022-11-11T07:21:36.800Z,86.38
2022-11-11T07:24:22.429Z,86.21
2022-11-11T07:27:07.966Z,86.16
2022-11-11T07:29:54.253Z,86.01
2022-11-11T07:32:45.212Z,85.88
2022-11-11T07:35:30.802Z,85.76
2022-11-11T07:38:16.369Z,85.66
2022-11-11T07:41:01.972Z,85.73
2022-11-11T07:43:47.296Z,85.47
2022-11-11T07:46:33.228Z,85.31
2022-11-11T07:49:19.138Z,85.27
2022-11-11T07:52:05.279Z,85.11
2022-11-11T07:54:50.759Z,84.99
2022-11-11T07:57:36.818Z,84.80
2022-11-11T08:00:23.407Z,84.82
2022-11-11T08:03:09.485Z,84.48
2022-11-11T08:05:56.401Z,84.25
2022-11-11T08:08:42.026Z,84.12
2022-11-11T08:11:41.663Z,84.23
2022-11-11T08:14:27.976Z,83.93
2022-11-11T08:17:13.577Z,83.98
2022-11-11T08:19:59.169Z,83.97
2022-11-11T08:23:01.234Z,83.60
2022-11-11T08:25:51.270Z,82.93
2022-11-11T08:28:37.209Z,83.09
2022-11-11T08:31:23.093Z,82.69
2022-11-11T08:34:09.258Z,82.50
2022-11-11T08:36:55.158Z,82.31
2022-11-11T08:39:40.874Z,82.29
2022-11-11T08:42:27.841Z,82.10
2022-11-11T08:45:14.041Z,81.84
2022-11-11T08:47:59.600Z,81.66
2022-11-11T08:50:45.718Z,81.40
2022-11-11T08:53:32.636Z,81.10
2022-11-11T08:56:18.337Z,80.86
2022-11-11T08:59:04.086Z,80.89
2022-11-11T09:01:49.655Z,81.11
2022-11-11T09:04:44.983Z,80.86
2022-11-11T09:07:31.867Z,80.98
2022-11-11T09:10:17.945Z,80.76
2022-11-11T09:13:04.725Z,80.55
2022-11-11T09:15:50.466Z,80.45
2022-11-11T09:18:36.386Z,80.06
2022-11-11T09:21:24.212Z,79.89
2022-11-11T09:24:10.029Z,79.66
2022-11-11T09:26:56.230Z,79.70
2022-11-11T09:29:42.748Z,79.61
2022-11-11T09:32:28.433Z,79.43
2022-11-11T09:35:14.240Z,79.43
2022-11-11T09:38:01.945Z,79.31
2022-11-11T09:40:59.228Z,79.28
2022-11-11T09:43:53.785Z,79.14
2022-11-11T09:46:47.735Z,79.08
2022-11-11T09:49:46.634Z,78.91
2022-11-11T09:52:38.255Z,78.77
2022-11-11T09:55:28.683Z,78.60
2022-11-11T09:58:20.279Z,78.69
2022-11-11T10:01:12.270Z,78.81
2022-11-11T10:04:10.639Z,78.59
2022-11-11T10:07:02.085Z,78.66
2022-11-11T10:09:52.070Z,78.57
2022-11-11T10:12:44.290Z,78.55
2022-11-11T10:15:35.450Z,78.82
2022-11-11T10:18:42.021Z,78.56
2022-11-11T10:21:57.952Z,78.52
2022-11-11T10:24:47.207Z,78.58
2022-11-11T10:27:37.211Z,78.43
2022-11-11T10:30:31.163Z,78.27
2022-11-11T10:33:25.970Z,78.60
2022-11-11T10:36:19.613Z,78.30
2022-11-11T10:39:06.921Z,78.44
2022-11-11T10:41:53.566Z,78.33
2022-11-11T10:44:39.518Z,78.34
2022-11-11T10:47:40.947Z,78.22
2022-11-11T10:50:33.179Z,78.14
2022-11-11T10:53:27.032Z,78.02
2022-11-11T10:56:19.377Z,77.83
2022-11-11T10:59:13.020Z,77.80
2022-11-11T11:02:03.207Z,77.69
2022-11-11T11:04:54.680Z,77.40
2022-11-11T11:07:48.099Z,77.32
2022-11-11T11:10:40.829Z,77.28
2022-11-11T11:13:34.049Z,77.22
2022-11-11T11:16:24.092Z,77.36
2022-11-11T11:19:20.978Z,77.24
2022-11-11T11:22:06.726Z,77.21
2022-11-11T11:24:52.666Z,77.01
2022-11-11T11:27:38.840Z,77.28
2022-11-11T11:30:27.158Z,77.17
2022-11-11T11:33:13.112Z,77.05
2022-11-11T11:35:58.627Z,76.84
2022-11-11T11:38:46.811Z,76.80
2022-11-11T11:41:43.376Z,76.89
2022-11-11T11:44:30.995Z,76.83
2022-11-11T11:47:22.273Z,76.71
2022-11-11T11:50:31.239Z,76.84
2022-11-11T11:53:30.025Z,76.84
2022-11-11T11:56:26.673Z,76.95
2022-11-11T11:59:20.266Z,76.71
2022-11-11T12:02:24.148Z,76.94
2022-11-11T12:05:19.720Z,76.89
2022-11-11T12:08:26.423Z,76.75
2022-11-11T12:11:19.826Z,76.51
2022-11-11T12:14:27.436Z,76.71
2022-11-11T12:17:26.456Z,76.77
2022-11-11T12:20:22.041Z,76.77
2022-11-11T12:23:28.752Z,76.78
2022-11-11T12:26:20.992Z,76.54
2022-11-11T12:29:32.901Z,76.28
2022-11-11T12:32:33.794Z,76.22
2022-11-11T12:35:34.680Z,76.18
2022-11-11T12:38:44.323Z,76.03
2022-11-11T12:41:42.214Z,75.89
2022-11-11T12:44:32.430Z,75.72
2022-11-11T12:47:36.554Z,75.81
2022-11-11T12:50:26.298Z,75.71
2022-11-11T12:53:26.331Z,75.61
2022-11-11T12:56:24.687Z,75.70
2022-11-11T12:59:21.688Z,75.64
2022-11-11T13:02:22.165Z,75.79
2022-11-11T13:05:15.946Z,76.05
2022-11-11T13:08:20.832Z,76.11
2022-11-11T13:11:17.945Z,76.06
2022-11-11T13:14:22.047Z,76.01
2022-11-11T13:17:15.109Z,76.29
2022-11-11T13:20:05.189Z,76.42
2022-11-11T13:22:51.859Z,76.27
2022-11-11T13:25:49.468Z,76.16
2022-11-11T13:28:42.212Z,76.31
2022-11-11T13:31:35.519Z,76.37
2022-11-11T13:34:22.305Z,76.36
2022-11-11T13:37:10.548Z,76.52
2022-11-11T13:40:01.744Z,76.59
2022-11-11T13:42:53.723Z,76.54
2022-11-11T13:45:42.520Z,76.38
2022-11-11T13:48:32.457Z,76.30
2022-11-11T13:51:26.325Z,76.35
2022-11-11T13:54:25.973Z,76.31
2022-11-11T13:57:22.593Z,76.33
2022-11-11T14:00:25.191Z,76.31
2022-11-11T14:03:34.899Z,76.39
2022-11-11T14:06:57.859Z,76.55
2022-11-11T14:10:03.195Z,76.57
2022-11-11T14:12:50.472Z,76.63
2022-11-11T14:15:43.066Z,76.28
2022-11-11T14:18:41.085Z,76.33
2022-11-11T14:21:49.984Z,76.41
2022-11-11T14:24:43.216Z,76.44
2022-11-11T14:27:32.295Z,76.18
2022-11-11T14:30:34.758Z,76.16
2022-11-11T14:33:32.441Z,76.37
2022-11-11T14:36:25.385Z,76.56
2022-11-11T14:39:22.329Z,76.78
2022-11-11T14:42:28.896Z,76.75
2022-11-11T14:46:00.258Z,76.87
2022-11-11T14:49:11.291Z,76.90
2022-11-11T14:52:00.200Z,77.04
2022-11-11T14:55:16.616Z,77.11
2022-11-11T14:58:11.459Z,77.16
2022-11-11T15:01:04.737Z,77.42
2022-11-11T15:03:53.772Z,77.33
2022-11-11T15:06:45.928Z,77.37
2022-11-11T15:09:49.465Z,77.35
2022-11-11T15:12:46.758Z,77.52
2022-11-11T15:15:40.713Z,77.57
2022-11-11T15:18:53.317Z,77.65
2022-11-11T15:21:45.144Z,77.84
2022-11-11T15:24:41.838Z,77.91
2022-11-11T15:27:35.232Z,78.12
2022-11-11T15:30:22.942Z,78.10
2022-11-11T15:33:19.769Z,78.21
2022-11-11T15:36:15.533Z,78.50
2022-11-11T15:39:06.475Z,78.74
2022-11-11T15:41:54.410Z,78.71
2022-11-11T15:44:40.354Z,78.82
2022-11-11T15:47:30.427Z,78.95
2022-11-11T15:50:36.719Z,79.07
2022-11-11T15:53:29.523Z,79.23
2022-11-11T15:56:33.507Z,79.18
2022-11-11T15:59:23.942Z,79.14
2022-11-11T16:02:23.748Z,79.30
2022-11-11T16:05:27.315Z,79.34
2022-11-11T16:08:21.680Z,79.25
2022-11-11T16:11:08.004Z,79.39
2022-11-11T16:14:02.552Z,79.38
2022-11-11T16:16:52.122Z,79.52
2022-11-11T16:19:47.815Z,79.54
2022-11-11T16:22:40.841Z,79.65
2022-11-11T16:25:26.925Z,79.76
2022-11-11T16:28:14.743Z,79.69
2022-11-11T16:30:58.536Z,79.72
2022-11-11T16:33:43.963Z,79.73
2022-11-11T16:36:29.931Z,79.80
2022-11-11T16:39:27.340Z,79.84
2022-11-11T16:42:23.556Z,79.81
2022-11-11T16:45:23.471Z,79.86
2022-11-11T16:48:42.891Z,79.97
2022-11-11T16:51:43.217Z,79.86
2022-11-11T16:54:32.808Z,80.05
2022-11-11T16:57:22.703Z,80.16
2022-11-11T17:00:14.104Z,80.16
2022-11-11T17:03:15.869Z,80.43
2022-11-11T17:06:05.081Z,80.42
2022-11-11T17:08:52.137Z,80.38
2022-11-11T17:11:47.836Z,80.45
2022-11-11T17:14:35.444Z,80.31
2022-11-11T17:17:21.586Z,80.32
2022-11-11T17:20:10.568Z,80.28
2022-11-11T17:22:58.089Z,80.38
2022-11-11T17:25:41.867Z,80.26
2022-11-11T17:28:28.615Z,80.22
2022-11-11T17:31:16.340Z,80.26
2022-11-11T17:34:06.548Z,80.12
2022-11-11T17:36:52.643Z,80.08
2022-11-11T17:39:39.283Z,79.92
2022-11-11T17:42:25.343Z,80.02
2022-11-11T17:45:12.927Z,80.27
2022-11-11T17:47:57.645Z,80.17
2022-11-11T17:50:43.618Z,80.03
2022-11-11T17:53:29.660Z,80.14
2022-11-11T17:56:15.828Z,80.14
2022-11-11T17:59:02.013Z,80.19
2022-11-11T18:01:47.681Z,80.28
2022-11-11T18:04:33.542Z,80.18
2022-11-11T18:07:19.258Z,80.38
2022-11-11T18:10:05.777Z,80.49
2022-11-11T18:12:51.659Z,80.28
2022-11-11T18:15:37.928Z,80.45
2022-11-11T18:18:23.577Z,80.35
2022-11-11T18:21:10.077Z,80.54
2022-11-11T18:23:56.340Z,80.41
2022-11-11T18:26:41.939Z,80.49
2022-11-11T18:29:28.673Z,80.45
2022-11-11T18:32:14.250Z,80.39
2022-11-11T18:35:00.144Z,80.60
2022-11-11T18:37:46.824Z,80.54
2022-11-11T18:40:33.700Z,80.82
2022-11-11T18:43:19.729Z,80.85
2022-11-11T18:46:11.045Z,80.97
2022-11-11T18:48:58.215Z,81.13
2022-11-11T18:51:44.368Z,81.19
2022-11-11T18:54:30.767Z,81.31
2022-11-11T18:57:17.409Z,81.36
2022-11-11T19:00:03.668Z,81.50
2022-11-11T19:02:49.364Z,81.55
2022-11-11T19:05:35.311Z,81.62
2022-11-11T19:08:20.818Z,81.78
2022-11-11T19:11:08.764Z,81.94
2022-11-11T19:13:54.833Z,82.10
2022-11-11T19:16:42.019Z,82.15
2022-11-11T19:19:27.879Z,82.04
2022-11-11T19:22:13.616Z,82.15
2022-11-11T19:25:00.434Z,82.39
2022-11-11T19:27:46.155Z,82.46
2022-11-11T19:30:31.856Z,82.46
2022-11-11T19:33:17.335Z,82.70
2022-11-11T19:36:04.740Z,82.83
2022-11-11T19:38:49.734Z,82.63
2022-11-11T19:41:35.145Z,82.68
2022-11-11T19:44:20.749Z,82.80
2022-11-11T19:47:07.079Z,82.77
2022-11-11T19:49:52.789Z,82.90
2022-11-11T19:52:38.432Z,82.72
2022-11-11T19:55:24.270Z,82.65
2022-11-11T19:58:09.863Z,82.71
2022-11-11T20:00:56.100Z,82.71
2022-11-11T20:03:42.910Z,82.51
2022-11-11T20:06:31.267Z,82.56
2022-11-11T20:09:17.876Z,82.57
2022-11-11T20:12:03.800Z,82.68
2022-11-11T20:14:49.846Z,82.74
2022-11-11T20:17:35.981Z,82.67
2022-11-11T20:20:21.996Z,82.70
2022-11-11T20:23:11.068Z,82.81
2022-11-11T20:25:57.762Z,82.77
2022-11-11T20:28:43.994Z,82.93
2022-11-11T20:31:30.149Z,82.74
2022-11-11T20:34:16.229Z,82.80
2022-11-11T20:37:01.758Z,82.90
2022-11-11T20:39:47.582Z,82.88
2022-11-11T20:42:33.250Z,82.76
2022-11-11T20:45:19.476Z,82.87
2022-11-11T20:48:08.923Z,82.85
2022-11-11T20:51:01.582Z,82.90
2022-11-11T20:53:47.979Z,82.93
2022-11-11T20:56:33.682Z,82.99
2022-11-11T20:59:19.548Z,82.97
2022-11-11T21:02:05.313Z,82.97
2022-11-11T21:04:51.144Z,83.02
2022-11-11T21:07:36.601Z,83.14
2022-11-11T21:10:22.170Z,83.17
2022-11-11T21:13:08.095Z,83.08
2022-11-11T21:15:53.968Z,83.14
2022-11-11T21:18:39.970Z,83.33
2022-11-11T21:21:28.512Z,83.48
2022-11-11T21:24:14.579Z,83.67
2022-11-11T21:27:00.290Z,83.67
2022-11-11T21:29:45.905Z,83.83
2022-11-11T21:32:31.582Z,83.81
2022-11-11T21:35:17.649Z,83.90
2022-11-11T21:38:03.399Z,83.86
2022-11-11T21:40:48.918Z,83.89
2022-11-11T21:43:35.421Z,83.82
2022-11-11T21:46:22.984Z,83.86
2022-11-11T21:49:08.729Z,83.83
2022-11-11T21:51:54.329Z,83.85
2022-11-11T21:54:40.517Z,83.97
2022-11-11T21:57:26.448Z,84.05
2022-11-11T22:00:14.903Z,83.93
2022-11-11T22:03:00.760Z,83.88
2022-11-11T22:05:46.396Z,83.91
2022-11-11T22:08:32.429Z,84.06
2022-11-11T22:11:20.360Z,84.16
2022-11-11T22:14:07.357Z,84.29
2022-11-11T22:16:53.367Z,84.36
2022-11-11T22:19:39.666Z,84.27
2022-11-11T22:22:25.270Z,84.30
2022-11-11T22:25:11.775Z,84.17
2022-11-11T22:27:57.091Z,84.28
2022-11-11T22:30:42.796Z,84.43
2022-11-11T22:33:28.199Z,84.20
2022-11-11T22:36:16.514Z,84.24
2022-11-11T22:39:03.057Z,84.28
2022-11-11T22:41:48.691Z,84.04
2022-11-11T22:44:34.220Z,84.08
2022-11-11T22:47:20.100Z,84.17
2022-11-11T22:50:06.789Z,84.13
2022-11-11T22:52:52.679Z,84.18
2022-11-11T22:55:38.495Z,84.34
2022-11-11T22:58:24.042Z,84.36
2022-11-11T23:01:13.835Z,84.44
2022-11-11T23:04:01.627Z,84.55
2022-11-11T23:06:48.242Z,84.18
2022-11-11T23:09:36.695Z,84.34
2022-11-11T23:12:22.631Z,84.30
2022-11-11T23:15:10.065Z,84.17
2022-11-11T23:17:54.505Z,84.24
2022-11-11T23:20:40.195Z,83.97
2022-11-11T23:23:26.700Z,83.99
2022-11-11T23:26:14.776Z,84.15
2022-11-11T23:29:00.762Z,84.08
2022-11-11T23:31:46.733Z,84.13
2022-11-11T23:34:33.032Z,84.06
2022-11-11T23:37:18.928Z,84.07
2022-11-11T23:40:04.650Z,84.21
2022-11-11T23:42:50.995Z,84.17
2022-11-11T23:45:37.335Z,84.13
2022-11-11T23:48:25.336Z,84.09
2022-11-11T23:51:11.575Z,84.16
2022-11-11T23:53:58.035Z,84.21
2022-11-11T23:56:43.823Z,84.26
2022-11-11T23:59:30.129Z,84.26
